Tropical Cyclones
[Index]
Main Index Home Page Stock Weather Photos Extreme Storms Discussion Storm News and Storm Chasing Reports Tropical Cyclones / Hurricanes / Typhoons Weather Data and Links Wild Fires / Bushfires Weather Observation Techniques Weather Picture Catalogue Tornado Pictures and Reports Stock Video Footage and DVDs for sale
Season 2013-2014 Tropical Cyclone 201314_09 Track Map
Season 2013-2014 Summaries: [BoM-AU] [JTWC-AU] [JTWC-SIO] [JTWC-SPAC] [JTWC-SH]
<<- Previous TC | BoM 2013-2014 Season | Next TC ->>

click for intensity scale information  Lat/long Grid: Show Hide

 Date Labels: Show Hide

Bureau of Meteorology Tropical Cyclone Data

Name: 201314_09
Number: 975 / 201314_09

31 Jan 2014 00:00 UTC to 13 Feb 2014 00:00 UTC

    date/time    lat    long    hPa   cat  kts
2014-01-31 00   14.3   123.7   1002         10          
2014-01-31 06   13.9   123.2                10          
2014-01-31 12   13.5   123.3                10          
2014-01-31 18   13.2   123.2                10          
2014-02-01 00   13.2   123.0   1001         10          
2014-02-01 06   13.3   123.4    998         20          
2014-02-01 09   13.2   124.0    998         25          
2014-02-01 12   13.1   124.6   1000         25          
2014-02-01 18   13.2   125.3    999         25          
2014-02-02 00   13.5   125.9    998         35          
2014-02-02 03   13.5   126.5    997         35          
2014-02-02 04   13.7   126.7    997         35          
2014-02-02 05   13.8   126.9    996         35          
2014-02-02 06   13.8   127.0    996         35          
2014-02-02 07   13.9   127.2    996         35          
2014-02-02 08   14.0   127.4    996         35          
2014-02-02 09   14.1   127.7    994    1    35          
2014-02-02 10   14.2   127.8    993    1    35          
2014-02-02 11   14.2   128.0    993    1    35          
2014-02-02 12   14.2   128.1    995    1    35          
2014-02-02 13   14.3   128.2    995    1    35          
2014-02-02 14   14.3   128.3    992    1    40          
2014-02-02 15   14.3   128.4    991    1    40          
2014-02-02 16   14.5   128.7    989    1    45          
2014-02-02 17   14.6   128.8    989    1    45          
2014-02-02 18   14.6   128.9    984    2    50          
2014-02-02 19   14.6   129.0    984    2    50          
2014-02-02 20   14.7   129.1    984    2    50          
2014-02-02 21   14.8   129.2    986    1    50          
2014-02-02 22   14.8   129.3    985    2    50          
2014-02-02 23   14.9   129.4    985    2    50          
2014-02-03 00   14.9   129.5    987    1    50          
2014-02-03 01   14.9   129.6    984    2    55          
2014-02-03 02   15.0   129.7    984    2    55          
2014-02-03 03   15.1   129.7    982    2    55          
2014-02-03 06   15.2   129.9    989    1    40          
2014-02-03 09   15.3   130.2    994    1    30          
2014-02-03 12   15.3   130.6    995    1    30          
2014-02-03 18   15.3   131.1    995    1    30          
2014-02-04 00   15.6   132.1    998         25          
2014-02-04 06   15.8   132.8    997         25          
2014-02-04 12   16.4   133.5    997         25          
2014-02-04 18   16.8   133.0    997         25          
2014-02-05 00   17.5   132.5    998         20          
2014-02-05 06   17.8   132.4    997         20          
2014-02-05 12   17.8   132.0    998         20          
2014-02-05 18   17.5   131.0    997         20          
2014-02-06 00   17.4   130.7    998         25          
2014-02-06 06   17.3   130.2    997         20          
2014-02-06 12   16.7   129.7    999         20          
2014-02-06 18   16.3   129.2    995    1    20          
2014-02-07 00   16.0   128.8    996         20          
2014-02-07 03   16.0   128.9    995    1    25          
2014-02-07 06   16.0   128.7    993    1    25          
2014-02-07 09   15.9   128.5                            
2014-02-07 12   15.9   128.3    994    1                
2014-02-07 18   16.0   128.1    994    1                
2014-02-07 21   16.2   127.8    994    1                
2014-02-08 00   16.2   127.5    994    1    25          
2014-02-08 03   16.3   127.3                            
2014-02-08 06   16.4   127.0    993    1    25          
2014-02-08 09   16.6   126.7    993    1    25          
2014-02-08 12   16.7   126.4    992    1    25          
2014-02-08 15   16.8   126.1    992    1    25          
2014-02-08 18   17.0   125.7    988    1    25          
2014-02-08 21   17.1   125.3    988    1    25          
2014-02-09 00   17.2   124.9    988    1    25          
2014-02-09 03   17.3   124.5    988    1    25          
2014-02-09 06   17.4   124.2    988    1    25          
2014-02-09 09   17.8   124.0    988    1    25          
2014-02-09 12   17.9   123.8    988    1    25          
2014-02-09 15   18.1   123.6    990    1    25          
2014-02-09 18   18.5   123.1    990    1    25          
2014-02-09 21   18.8   122.6    988    1    25          
2014-02-09 22   18.9   122.6                            
2014-02-10 00   19.1   122.3    992    1    30          
2014-02-10 06   19.7   121.9                            
2014-02-11 00   20.9   121.4    990    1    25          
2014-02-12 00   23.7   121.6                            
2014-02-13 00   25.5   123.7                20          
Winds are 10-min average.

Tropical cyclone tracks developed by Michael Bath using data from the Bureau of Meteorology and Google Maps.


[Australian Severe Weather index] [Copyright Notice] [Email Contacts] [Search This Site] [Privacy Policy]
Document: tropical_cyclone_201314_09.htm Updated: 29 June 2017